Time;durP1;ratioP1;P1;durP2;ratioP2;P2;SDS_P1;SDS_P2;PMS_P1;PMS_P2;Temp;Humidity;BMP_temperature;BMP_pressure;BME280_temperature;BME280_humidity;BME280_pressure;Samples;Min_cycle;Max_cycle;Signal;HPM_P1;HPM_P2
2022/11/22 00:01:33;;;;;;;;;;;10.20;99.90;;;;;;5081438;28;19917;-72
2022/11/22 00:03:59;;;;;;;;;;;10.20;99.90;;;;;;5082305;28;19924;-72
2022/11/22 00:06:25;;;;;;;;;;;10.20;99.90;;;;;;5079184;28;19920;-72
2022/11/22 00:08:50;;;;;;;;;;;10.20;99.90;;;;;;5082035;28;20271;-72
2022/11/22 00:11:16;;;;;;;;;;;10.30;99.90;;;;;;5095109;28;20014;-73
2022/11/22 00:13:42;;;;;;;;;;;10.20;99.90;;;;;;5102251;28;19966;-73
2022/11/22 00:16:07;;;;;;;;;;;10.20;99.90;;;;;;5107394;28;20404;-72
2022/11/22 00:18:33;;;;;;;;;;;10.30;99.90;;;;;;5099147;28;20033;-73
2022/11/22 00:21:03;;;;;;;;;;;10.30;99.90;;;;;;5100310;28;20274;-73
2022/11/22 00:23:29;;;;;;;;;;;10.30;99.90;;;;;;5101552;28;19919;-72
2022/11/22 00:25:55;;;;;;;;;;;10.30;99.90;;;;;;5094385;28;19920;-73
2022/11/22 00:28:20;;;;;;;;;;;10.40;99.90;;;;;;5120522;27;19914;-72
2022/11/22 00:30:46;;;;;;;;;;;10.40;99.90;;;;;;5100577;28;19962;-72
2022/11/22 00:33:12;;;;;;;;;;;10.40;99.90;;;;;;5105557;28;19916;-72
2022/11/22 00:35:37;;;;;;;;;;;10.50;99.90;;;;;;5084859;28;19974;-72
2022/11/22 00:38:03;;;;;;;;;;;10.60;99.90;;;;;;5097138;28;19916;-73
2022/11/22 00:40:29;;;;;;;;;;;10.50;99.90;;;;;;5088142;28;19943;-73
2022/11/22 00:42:54;;;;;;;;;;;10.50;99.90;;;;;;5085987;28;19912;-73
2022/11/22 00:45:20;;;;;;;;;;;10.60;99.90;;;;;;5091926;28;19912;-73
2022/11/22 00:47:46;;;;;;;;;;;10.60;99.90;;;;;;5087827;28;19912;-73
2022/11/22 00:50:12;;;;;;;;;;;10.50;99.90;;;;;;5091139;28;19970;-72
2022/11/22 00:52:37;;;;;;;;;;;10.50;99.90;;;;;;5099623;28;19962;-72
2022/11/22 00:55:03;;;;;;;;;;;10.60;99.90;;;;;;5107432;28;19978;-73
2022/11/22 00:57:29;;;;;;;;;;;10.60;99.90;;;;;;5103429;28;19918;-72
2022/11/22 00:59:54;;;;;;;;;;;10.70;99.90;;;;;;5091017;28;19912;-72
2022/11/22 01:02:23;;;;;;;;;;;10.60;99.90;;;;;;5098118;28;19948;-73
2022/11/22 01:04:48;;;;;;;;;;;10.60;99.90;;;;;;5099214;28;19916;-72
2022/11/22 01:07:17;;;;;;;;;;;10.60;99.90;;;;;;5098839;28;20010;-72
2022/11/22 01:09:43;;;;;;;;;;;10.70;99.90;;;;;;5099148;28;19963;-73
2022/11/22 01:12:09;;;;;;;;;;;10.70;99.90;;;;;;5102842;28;19935;-73
2022/11/22 01:14:34;;;;;;;;;;;10.70;99.90;;;;;;5108935;28;19958;-72
2022/11/22 01:17:00;;;;;;;;;;;10.80;99.90;;;;;;5093667;28;20431;-73
2022/11/22 01:19:26;;;;;;;;;;;11.00;99.90;;;;;;5093903;28;20014;-73
2022/11/22 01:21:52;;;;;;;;;;;11.00;99.90;;;;;;5095629;28;19912;-73
2022/11/22 01:24:17;;;;;;;;;;;11.00;99.90;;;;;;5075939;28;19912;-73
2022/11/22 01:26:43;;;;;;;;;;;10.90;99.90;;;;;;5094802;28;19908;-73
2022/11/22 01:29:09;;;;;;;;;;;10.90;99.90;;;;;;5094336;28;19935;-73
2022/11/22 01:31:34;;;;;;;;;;;10.90;99.90;;;;;;5093552;28;19916;-73
2022/11/22 01:34:00;;;;;;;;;;;11.00;99.90;;;;;;5094642;28;19916;-73
2022/11/22 01:36:26;;;;;;;;;;;11.10;99.90;;;;;;5098030;28;19908;-72
2022/11/22 01:38:52;;;;;;;;;;;11.20;99.90;;;;;;5096954;28;20002;-72
2022/11/22 01:41:17;;;;;;;;;;;11.20;99.90;;;;;;5085191;28;19955;-73
2022/11/22 01:43:43;;;;;;;;;;;11.20;99.90;;;;;;5067552;28;20279;-73
2022/11/22 01:46:15;;;;;;;;;;;11.10;99.90;;;;;;5082729;28;19920;-73
2022/11/22 01:48:51;;;;;;;;;;;11.10;99.90;;;;;;5069309;28;19920;-72
2022/11/22 01:51:52;;;;;;;;;;;11.10;99.90;;;;;;5087235;28;19916;-73
2022/11/22 01:57:15;;;;;;;;;;;11.20;99.90;;;;;;5018017;28;19924;-72
2022/11/22 01:59:44;;;;;;;;;;;11.10;99.90;;;;;;5029116;28;19925;-72
2022/11/22 02:02:28;;;;;;;;;;;11.20;99.90;;;;;;5061312;28;20007;-72
2022/11/22 02:04:55;;;;;;;;;;;11.20;99.90;;;;;;5069732;28;20287;-72
2022/11/22 02:07:28;;;;;;;;;;;11.30;99.90;;;;;;5068812;28;19912;-72
2022/11/22 02:09:54;;;;;;;;;;;11.30;99.90;;;;;;5096734;28;19917;-72
2022/11/22 02:12:22;;;;;;;;;;;11.40;99.90;;;;;;5107169;28;19919;-72
2022/11/22 02:14:48;;;;;;;;;;;11.40;99.90;;;;;;5089100;28;19936;-71
2022/11/22 02:17:14;;;;;;;;;;;11.40;99.90;;;;;;5102507;28;19912;-71
2022/11/22 02:19:47;;;;;;;;;;;11.50;99.90;;;;;;5095667;28;19913;-71
2022/11/22 02:22:31;;;;;;;;;;;11.50;99.90;;;;;;5118324;27;19999;-71
2022/11/22 02:25:03;;;;;;;;;;;11.50;99.90;;;;;;5095977;28;20167;-71
2022/11/22 02:27:28;;;;;;;;;;;11.60;99.90;;;;;;5101013;28;19912;-71
2022/11/22 02:29:54;;;;;;;;;;;11.60;99.90;;;;;;5092838;28;19916;-71
2022/11/22 02:32:20;;;;;;;;;;;11.60;99.90;;;;;;5096075;28;20357;-71
2022/11/22 02:34:47;;;;;;;;;;;11.60;99.90;;;;;;5089544;28;19936;-71
2022/11/22 02:37:14;;;;;;;;;;;11.70;99.90;;;;;;5097815;28;19912;-70
2022/11/22 02:43:09;;;;;;;;;;;11.80;99.90;;;;;;5098116;28;19974;-71
2022/11/22 02:45:41;;;;;;;;;;;11.80;99.90;;;;;;5115804;27;19912;-71
2022/11/22 02:48:08;;;;;;;;;;;11.90;99.90;;;;;;5100642;28;19920;-70
2022/11/22 02:50:34;;;;;;;;;;;12.00;99.90;;;;;;5094847;28;19916;-71
2022/11/22 02:53:00;;;;;;;;;;;12.00;99.90;;;;;;5094421;28;19959;-71
2022/11/22 02:55:25;;;;;;;;;;;12.00;99.90;;;;;;5109212;27;19919;-71
2022/11/22 02:57:51;;;;;;;;;;;12.10;99.90;;;;;;5101353;28;19942;-71
2022/11/22 03:00:17;;;;;;;;;;;12.10;99.90;;;;;;5100750;28;19926;-71
2022/11/22 03:02:43;;;;;;;;;;;12.10;99.90;;;;;;5074259;28;19934;-71
2022/11/22 03:05:08;;;;;;;;;;;12.10;99.90;;;;;;5100737;28;20456;-70
2022/11/22 03:07:34;;;;;;;;;;;12.10;99.90;;;;;;5106344;28;19934;-70
2022/11/22 03:10:00;;;;;;;;;;;12.20;99.90;;;;;;5098019;28;19971;-70
2022/11/22 03:12:25;;;;;;;;;;;12.20;99.90;;;;;;5101901;28;20009;-71
2022/11/22 03:14:51;;;;;;;;;;;12.20;99.90;;;;;;5109257;28;20323;-70
2022/11/22 03:17:17;;;;;;;;;;;12.30;99.90;;;;;;5075644;28;19923;-71
2022/11/22 03:19:42;;;;;;;;;;;12.30;99.90;;;;;;5093776;28;19916;-71
2022/11/22 03:22:08;;;;;;;;;;;12.30;99.90;;;;;;5078397;28;19912;-71
2022/11/22 03:24:34;;;;;;;;;;;12.30;99.90;;;;;;5073543;28;19915;-71
2022/11/22 03:26:59;;;;;;;;;;;12.30;99.90;;;;;;5082714;28;20002;-71
2022/11/22 03:29:25;;;;;;;;;;;12.30;99.90;;;;;;5075552;28;20370;-71
2022/11/22 03:31:51;;;;;;;;;;;12.40;99.90;;;;;;5094484;28;19912;-71
2022/11/22 03:34:17;;;;;;;;;;;12.50;99.90;;;;;;5094004;28;20366;-71
2022/11/22 03:36:42;;;;;;;;;;;12.50;99.90;;;;;;5094908;28;19912;-71
2022/11/22 03:39:08;;;;;;;;;;;12.50;99.90;;;;;;5090201;28;19912;-71
2022/11/22 03:41:34;;;;;;;;;;;12.50;99.90;;;;;;5095125;28;19919;-71
2022/11/22 03:44:06;;;;;;;;;;;12.50;99.90;;;;;;5071047;28;19911;-71
2022/11/22 03:46:31;;;;;;;;;;;12.50;99.90;;;;;;5076736;28;19912;-71
2022/11/22 03:48:57;;;;;;;;;;;12.60;99.90;;;;;;5081547;28;20309;-72
2022/11/22 03:51:23;;;;;;;;;;;12.60;99.90;;;;;;5101248;28;19916;-71
2022/11/22 03:53:48;;;;;;;;;;;12.70;99.90;;;;;;5094881;28;19923;-71
2022/11/22 03:56:14;;;;;;;;;;;12.70;99.90;;;;;;5100101;28;19911;-71
2022/11/22 03:58:40;;;;;;;;;;;12.70;99.90;;;;;;5106280;28;19908;-75
2022/11/22 04:01:05;;;;;;;;;;;12.80;99.90;;;;;;5087159;28;19918;-71
2022/11/22 04:03:31;;;;;;;;;;;12.80;99.90;;;;;;5104191;28;19993;-72
2022/11/22 04:05:57;;;;;;;;;;;12.70;99.90;;;;;;5106359;28;19965;-71
2022/11/22 04:08:23;;;;;;;;;;;12.70;99.90;;;;;;5064365;28;19922;-72
2022/11/22 04:10:52;;;;;;;;;;;12.50;99.90;;;;;;5068748;28;19965;-72
2022/11/22 04:13:18;;;;;;;;;;;12.40;99.90;;;;;;5083867;28;20983;-72
2022/11/22 04:15:44;;;;;;;;;;;12.30;99.90;;;;;;5081257;28;19916;-71
2022/11/22 04:18:10;;;;;;;;;;;12.30;99.90;;;;;;5079987;28;19959;-71
2022/11/22 04:23:20;;;;;;;;;;;12.30;99.90;;;;;;5081682;28;19927;-71
2022/11/22 04:25:47;;;;;;;;;;;12.30;99.90;;;;;;5078419;28;19912;-72
2022/11/22 04:28:14;;;;;;;;;;;12.40;99.90;;;;;;5097563;28;19912;-71
2022/11/22 04:33:24;;;;;;;;;;;12.30;99.90;;;;;;5101452;28;19922;-71
2022/11/22 04:35:49;;;;;;;;;;;12.30;99.90;;;;;;5096229;28;20010;-71
2022/11/22 04:38:16;;;;;;;;;;;12.30;99.90;;;;;;5094433;28;19912;-72
2022/11/22 04:40:41;;;;;;;;;;;12.30;99.90;;;;;;5093357;28;19958;-71
2022/11/22 04:45:52;;;;;;;;;;;12.40;99.90;;;;;;5091728;28;20277;-71
2022/11/22 04:48:18;;;;;;;;;;;12.40;99.90;;;;;;5105022;28;19912;-71
2022/11/22 04:53:29;;;;;;;;;;;12.50;99.90;;;;;;5106157;28;20388;-72
2022/11/22 04:55:55;;;;;;;;;;;12.40;99.90;;;;;;5079915;28;19912;-75
2022/11/22 04:58:21;;;;;;;;;;;12.50;99.90;;;;;;5087368;28;19912;-71
2022/11/22 05:00:47;;;;;;;;;;;12.60;99.90;;;;;;5105129;28;20301;-71
2022/11/22 05:03:13;;;;;;;;;;;12.70;99.90;;;;;;5100315;28;19912;-75
2022/11/22 05:05:39;;;;;;;;;;;12.60;99.90;;;;;;5102652;28;20010;-71
2022/11/22 05:08:06;;;;;;;;;;;12.70;99.90;;;;;;5083996;28;19919;-72
2022/11/22 05:10:55;;;;;;;;;;;12.80;99.90;;;;;;5101934;28;20289;-71
2022/11/22 05:13:18;;;;;;;;;;;12.80;99.90;;;;;;5102194;28;20011;-72
2022/11/22 05:15:44;;;;;;;;;;;12.90;99.90;;;;;;5082519;28;20007;-72
2022/11/22 05:18:10;;;;;;;;;;;12.80;99.90;;;;;;5100315;28;20002;-73
2022/11/22 05:20:36;;;;;;;;;;;12.80;99.90;;;;;;5098273;28;19912;-72
2022/11/22 05:25:46;;;;;;;;;;;12.80;99.90;;;;;;5099303;28;19966;-76
2022/11/22 05:28:11;;;;;;;;;;;12.80;99.90;;;;;;5098422;28;20336;-72
2022/11/22 05:30:40;;;;;;;;;;;12.90;99.90;;;;;;5098498;28;19934;-73
2022/11/22 05:33:06;;;;;;;;;;;12.90;99.90;;;;;;5098751;28;19922;-72
2022/11/22 05:35:32;;;;;;;;;;;12.90;99.90;;;;;;5097717;28;19955;-72
2022/11/22 05:37:58;;;;;;;;;;;12.90;99.90;;;;;;5097458;28;20002;-72
2022/11/22 05:40:24;;;;;;;;;;;12.90;99.90;;;;;;5098036;28;19962;-73
2022/11/22 05:42:57;;;;;;;;;;;13.00;99.90;;;;;;5096611;28;19912;-74
2022/11/22 05:45:23;;;;;;;;;;;12.90;99.90;;;;;;5095861;28;19911;-73
2022/11/22 05:47:48;;;;;;;;;;;13.00;99.90;;;;;;5096170;28;20422;-74
2022/11/22 05:50:14;;;;;;;;;;;13.00;99.90;;;;;;5100403;28;20462;-74
2022/11/22 05:52:40;;;;;;;;;;;13.00;99.90;;;;;;5106267;28;19909;-73
2022/11/22 05:55:06;;;;;;;;;;;13.00;99.90;;;;;;5094859;28;19994;-74
2022/11/22 05:57:32;;;;;;;;;;;13.00;99.90;;;;;;5097243;28;19915;-73
2022/11/22 05:59:57;;;;;;;;;;;13.00;99.90;;;;;;5094840;28;19912;-74
2022/11/22 06:02:24;;;;;;;;;;;12.80;99.90;;;;;;5097243;28;19918;-74
2022/11/22 06:04:49;;;;;;;;;;;12.70;99.90;;;;;;5077079;28;19916;-76
2022/11/22 06:07:15;;;;;;;;;;;12.60;99.90;;;;;;5103513;28;19911;-73
2022/11/22 06:09:41;;;;;;;;;;;12.40;99.90;;;;;;5077374;28;19951;-73
2022/11/22 06:12:07;;;;;;;;;;;12.30;99.90;;;;;;5085660;28;19912;-71
2022/11/22 06:14:55;;;;;;;;;;;12.20;99.90;;;;;;5111955;27;19915;-71
2022/11/22 06:17:21;;;;;;;;;;;12.00;99.90;;;;;;5103346;28;20300;-71
2022/11/22 06:19:47;;;;;;;;;;;11.90;99.90;;;;;;5102485;28;19908;-71
2022/11/22 06:22:13;;;;;;;;;;;11.80;99.90;;;;;;5087253;28;20019;-70
2022/11/22 06:24:42;;;;;;;;;;;11.70;99.90;;;;;;5100871;28;20377;-71
2022/11/22 06:27:10;;;;;;;;;;;11.60;99.90;;;;;;5108527;28;19998;-71
2022/11/22 06:29:36;;;;;;;;;;;11.50;99.90;;;;;;5080144;28;19958;-71
2022/11/22 06:32:02;;;;;;;;;;;11.40;99.90;;;;;;5101711;28;19912;-71
2022/11/22 06:34:28;;;;;;;;;;;11.40;99.90;;;;;;5077435;28;19923;-71
2022/11/22 06:36:54;;;;;;;;;;;11.20;99.90;;;;;;5099994;28;19966;-70
2022/11/22 06:39:19;;;;;;;;;;;11.20;99.90;;;;;;5090973;28;19995;-71
2022/11/22 06:41:45;;;;;;;;;;;11.20;99.90;;;;;;5092976;28;19913;-72
2022/11/22 06:44:11;;;;;;;;;;;11.10;99.90;;;;;;5096083;28;19919;-71
2022/11/22 06:46:37;;;;;;;;;;;11.20;99.90;;;;;;5077438;28;20520;-71
2022/11/22 06:49:02;;;;;;;;;;;11.20;99.90;;;;;;5079425;28;20032;-71
2022/11/22 06:51:29;;;;;;;;;;;11.10;99.90;;;;;;5104686;28;19919;-71
2022/11/22 06:53:55;;;;;;;;;;;11.10;99.90;;;;;;5076200;28;19912;-72
2022/11/22 06:56:23;;;;;;;;;;;10.90;99.90;;;;;;5106911;27;19999;-72
2022/11/22 06:58:52;;;;;;;;;;;10.80;99.90;;;;;;5094212;28;19919;-71
2022/11/22 07:01:19;;;;;;;;;;;10.70;99.90;;;;;;5094676;28;19922;-71
2022/11/22 07:03:45;;;;;;;;;;;10.60;99.90;;;;;;5093256;28;19912;-63
2022/11/22 07:06:12;;;;;;;;;;;10.40;99.90;;;;;;5093695;28;20394;-72
2022/11/22 07:08:38;;;;;;;;;;;10.50;99.90;;;;;;5106298;28;19920;-70
2022/11/22 07:11:06;;;;;;;;;;;10.40;99.90;;;;;;5103192;28;20190;-70
2022/11/22 07:13:37;;;;;;;;;;;10.40;99.90;;;;;;5096736;28;19923;-70
2022/11/22 07:16:04;;;;;;;;;;;10.30;99.90;;;;;;5123837;27;19908;-70
2022/11/22 07:18:30;;;;;;;;;;;10.30;99.90;;;;;;5112451;28;19916;-70
2022/11/22 07:21:03;;;;;;;;;;;10.40;99.90;;;;;;5113158;28;20427;-70
2022/11/22 07:23:29;;;;;;;;;;;10.30;99.90;;;;;;5104576;28;19931;-70
2022/11/22 07:25:56;;;;;;;;;;;10.40;99.90;;;;;;5099524;28;19955;-70
2022/11/22 07:28:22;;;;;;;;;;;10.40;99.90;;;;;;5080685;28;19913;-70
2022/11/22 07:30:48;;;;;;;;;;;10.50;99.90;;;;;;5097582;28;19920;-70
2022/11/22 07:33:17;;;;;;;;;;;10.70;99.90;;;;;;5081459;28;19916;-70
2022/11/22 07:35:43;;;;;;;;;;;10.80;99.90;;;;;;5085766;28;19935;-70
2022/11/22 07:38:15;;;;;;;;;;;10.90;99.90;;;;;;5085625;28;19922;-69
2022/11/22 07:40:47;;;;;;;;;;;10.90;99.90;;;;;;5091299;28;19918;-69
2022/11/22 07:43:14;;;;;;;;;;;11.00;99.90;;;;;;5087318;28;19912;-69
2022/11/22 07:45:39;;;;;;;;;;;11.00;99.90;;;;;;5099519;28;19952;-70
2022/11/22 07:48:05;;;;;;;;;;;10.90;99.90;;;;;;5096973;28;19915;-70
2022/11/22 07:50:32;;;;;;;;;;;10.90;99.90;;;;;;5088809;28;19924;-69
2022/11/22 07:52:59;;;;;;;;;;;10.80;99.90;;;;;;5105533;28;19916;-69
2022/11/22 07:55:30;;;;;;;;;;;10.70;99.90;;;;;;5088133;28;19912;-69
2022/11/22 07:57:59;;;;;;;;;;;10.70;99.90;;;;;;5092553;28;20397;-69
2022/11/22 08:00:28;;;;;;;;;;;10.70;99.90;;;;;;5101850;28;19912;-69
2022/11/22 08:02:54;;;;;;;;;;;10.60;99.90;;;;;;5092224;28;19912;-69
2022/11/22 08:05:20;;;;;;;;;;;10.50;99.90;;;;;;5085677;28;19950;-70
2022/11/22 08:07:47;;;;;;;;;;;10.50;99.90;;;;;;5097398;28;19913;-70
2022/11/22 08:10:13;;;;;;;;;;;10.40;99.90;;;;;;5113730;28;19976;-70
2022/11/22 08:12:39;;;;;;;;;;;10.50;99.90;;;;;;5100749;28;20311;-70
2022/11/22 08:15:08;;;;;;;;;;;10.60;99.90;;;;;;5101759;28;19918;-70
2022/11/22 08:17:35;;;;;;;;;;;10.60;99.90;;;;;;5079648;28;20289;-70
2022/11/22 08:20:01;;;;;;;;;;;10.60;99.90;;;;;;5098092;28;19930;-69
2022/11/22 08:22:30;;;;;;;;;;;10.50;99.90;;;;;;5096351;28;19912;-70
2022/11/22 08:24:56;;;;;;;;;;;10.40;99.90;;;;;;5080602;28;19918;-70
2022/11/22 08:27:24;;;;;;;;;;;10.30;99.90;;;;;;5096295;28;20176;-70
2022/11/22 08:29:52;;;;;;;;;;;10.20;99.90;;;;;;5097161;28;20289;-70
2022/11/22 08:32:18;;;;;;;;;;;10.20;99.90;;;;;;5078128;28;20293;-70
2022/11/22 08:34:44;;;;;;;;;;;10.20;99.90;;;;;;5098995;28;19912;-70
2022/11/22 08:37:10;;;;;;;;;;;10.20;99.90;;;;;;5095760;28;19916;-70
2022/11/22 08:39:35;;;;;;;;;;;10.10;99.90;;;;;;5095612;28;19999;-70
2022/11/22 08:42:01;;;;;;;;;;;10.10;99.90;;;;;;5101288;28;19965;-69
2022/11/22 08:44:27;;;;;;;;;;;10.10;99.90;;;;;;5090397;28;19930;-70
2022/11/22 08:46:55;;;;;;;;;;;10.10;99.90;;;;;;5087511;28;20222;-69
2022/11/22 08:49:24;;;;;;;;;;;10.20;99.90;;;;;;5103640;28;19912;-69
2022/11/22 08:51:55;;;;;;;;;;;10.10;99.90;;;;;;5106592;28;19916;-70
2022/11/22 08:54:21;;;;;;;;;;;10.10;99.90;;;;;;5118956;28;19958;-70
2022/11/22 08:56:46;;;;;;;;;;;10.20;99.90;;;;;;5110134;28;19912;-71
2022/11/22 08:59:12;;;;;;;;;;;10.10;99.90;;;;;;5099073;28;19908;-71
2022/11/22 09:01:38;;;;;;;;;;;10.00;99.90;;;;;;5099979;28;19917;-71
2022/11/22 09:04:04;;;;;;;;;;;10.00;99.90;;;;;;5086462;28;19920;-70
2022/11/22 09:06:30;;;;;;;;;;;10.10;99.90;;;;;;5076489;28;19955;-69
2022/11/22 09:08:55;;;;;;;;;;;10.00;99.90;;;;;;5101702;28;19912;-69
2022/11/22 09:11:21;;;;;;;;;;;10.00;99.90;;;;;;5104261;28;20397;-69
2022/11/22 09:13:47;;;;;;;;;;;9.90;99.90;;;;;;5099509;28;19975;-69
2022/11/22 09:16:32;;;;;;;;;;;;;;;;;;;;;
2022/11/22 09:19:01;;;;;;;;;;;9.70;99.90;;;;;;5101492;28;20011;-69
2022/11/22 09:21:26;;;;;;;;;;;9.60;99.90;;;;;;5083746;28;19939;-69
2022/11/22 09:23:53;;;;;;;;;;;9.50;99.90;;;;;;5115253;28;19912;-69
2022/11/22 09:26:23;;;;;;;;;;;9.50;99.90;;;;;;5101106;28;19912;-69
2022/11/22 09:28:51;;;;;;;;;;;9.40;99.90;;;;;;5101597;28;19920;-69
2022/11/22 09:31:18;;;;;;;;;;;9.40;99.90;;;;;;5097713;28;19916;-69
2022/11/22 09:33:48;;;;;;;;;;;9.30;99.90;;;;;;5101049;28;19929;-69
2022/11/22 09:36:22;;;;;;;;;;;9.30;99.90;;;;;;5079957;28;19960;-69
2022/11/22 09:38:54;;;;;;;;;;;9.20;99.90;;;;;;5097642;28;19939;-69
2022/11/22 09:41:46;;;;;;;;;;;9.20;99.90;;;;;;5082961;28;19911;-69
2022/11/22 09:44:42;;;;;;;;;;;9.20;99.90;;;;;;5080663;28;19938;-69
2022/11/22 09:47:10;;;;;;;;;;;9.10;99.90;;;;;;5097797;28;20601;-69
2022/11/22 09:49:54;;;;;;;;;;;9.20;99.90;;;;;;5078231;28;19920;-68
2022/11/22 09:52:23;;;;;;;;;;;9.30;99.90;;;;;;5073231;28;19909;-69
2022/11/22 09:55:09;;;;;;;;;;;9.40;99.90;;;;;;5096154;28;19912;-69
2022/11/22 09:57:46;;;;;;;;;;;9.40;99.90;;;;;;5115487;28;19911;-69
2022/11/22 10:00:24;;;;;;;;;;;9.50;99.90;;;;;;5099834;28;19912;-69
2022/11/22 10:02:55;;;;;;;;;;;9.50;99.90;;;;;;5112375;28;20019;-69
2022/11/22 10:05:31;;;;;;;;;;;9.60;99.90;;;;;;5104283;28;19926;-70
2022/11/22 10:08:00;;;;;;;;;;;9.70;99.90;;;;;;5103996;28;19908;-69
2022/11/22 10:10:34;;;;;;;;;;;9.70;99.90;;;;;;5105381;28;20463;-69
2022/11/22 10:13:08;;;;;;;;;;;9.80;99.90;;;;;;5085404;28;19931;-69
2022/11/22 10:15:43;;;;;;;;;;;9.90;99.90;;;;;;5108803;28;19912;-69
2022/11/22 10:18:30;;;;;;;;;;;9.80;99.90;;;;;;5107932;28;19947;-69
2022/11/22 10:20:56;;;;;;;;;;;9.90;99.90;;;;;;5080487;28;19912;-69
2022/11/22 10:23:22;;;;;;;;;;;10.00;99.90;;;;;;5084405;28;20015;-68
2022/11/22 10:25:55;;;;;;;;;;;10.00;99.90;;;;;;5097008;28;19986;-69
2022/11/22 10:28:24;;;;;;;;;;;10.10;99.90;;;;;;5092228;28;19926;-69
2022/11/22 10:31:03;;;;;;;;;;;10.10;99.90;;;;;;5079526;28;19912;-68
2022/11/22 10:33:44;;;;;;;;;;;10.20;99.90;;;;;;5109684;28;19916;-68
2022/11/22 10:36:10;;;;;;;;;;;10.30;99.90;;;;;;5107624;28;19912;-69
2022/11/22 10:38:55;;;;;;;;;;;10.30;99.90;;;;;;5118564;28;19908;-69
2022/11/22 10:41:28;;;;;;;;;;;10.40;99.90;;;;;;5095804;28;19919;-68
2022/11/22 10:43:54;;;;;;;;;;;10.40;99.90;;;;;;5109608;28;19907;-68
2022/11/22 10:46:22;;;;;;;;;;;10.40;99.90;;;;;;5098822;28;19919;-68
2022/11/22 10:48:54;;;;;;;;;;;10.40;99.90;;;;;;5091257;28;19969;-69
2022/11/22 10:51:23;;;;;;;;;;;10.50;99.90;;;;;;5083553;28;20270;-68
2022/11/22 10:53:55;;;;;;;;;;;10.50;99.90;;;;;;5101874;28;19915;-68
2022/11/22 10:56:39;;;;;;;;;;;10.50;99.90;;;;;;5108375;28;19951;-69
2022/11/22 10:59:08;;;;;;;;;;;10.60;99.90;;;;;;5088886;28;19916;-69
2022/11/22 11:01:42;;;;;;;;;;;10.50;99.90;;;;;;5117374;28;19968;-69
2022/11/22 11:04:09;;;;;;;;;;;10.50;99.90;;;;;;5086672;28;19931;-69
2022/11/22 11:06:41;;;;;;;;;;;10.50;99.90;;;;;;5107246;28;20007;-69
2022/11/22 11:09:07;;;;;;;;;;;10.40;99.90;;;;;;5107623;28;19926;-69
2022/11/22 11:11:33;;;;;;;;;;;10.20;99.90;;;;;;5102524;28;19997;-67
2022/11/22 11:14:03;;;;;;;;;;;10.00;99.90;;;;;;5101161;28;19908;-69
2022/11/22 11:16:31;;;;;;;;;;;9.70;99.90;;;;;;5083554;28;19986;-68
2022/11/22 11:19:25;;;;;;;;;;;9.60;99.90;;;;;;5082313;28;19912;-68
2022/11/22 11:22:10;;;;;;;;;;;9.50;99.90;;;;;;5096140;28;20003;-69
2022/11/22 11:24:38;;;;;;;;;;;9.50;99.90;;;;;;5095233;28;19912;-68
2022/11/22 11:27:05;;;;;;;;;;;9.40;99.90;;;;;;5112145;27;19920;-67
2022/11/22 11:29:33;;;;;;;;;;;9.30;99.90;;;;;;5101887;27;19931;-69
2022/11/22 11:32:06;;;;;;;;;;;9.20;99.90;;;;;;5091318;28;19920;-70
2022/11/22 11:34:32;;;;;;;;;;;9.10;99.90;;;;;;5106308;28;20391;-69
2022/11/22 11:36:58;;;;;;;;;;;8.90;99.90;;;;;;5096502;28;19916;-69
2022/11/22 11:39:32;;;;;;;;;;;8.80;99.90;;;;;;5093685;28;20412;-69
2022/11/22 11:41:57;;;;;;;;;;;8.70;99.90;;;;;;5095694;28;20016;-68
2022/11/22 11:44:27;;;;;;;;;;;8.60;99.90;;;;;;5099096;28;19912;-69
2022/11/22 11:46:53;;;;;;;;;;;8.60;99.90;;;;;;5118298;27;19908;-69
2022/11/22 11:49:24;;;;;;;;;;;8.60;99.90;;;;;;5100368;28;19912;-69
2022/11/22 11:51:54;;;;;;;;;;;8.50;99.90;;;;;;5089048;28;19951;-69
2022/11/22 11:54:21;;;;;;;;;;;8.50;99.90;;;;;;5076456;28;19920;-69
2022/11/22 11:56:49;;;;;;;;;;;8.50;99.90;;;;;;5076485;28;20006;-69
2022/11/22 11:59:35;;;;;;;;;;;8.40;99.90;;;;;;5089546;28;20353;-69
2022/11/22 12:02:00;;;;;;;;;;;8.40;99.90;;;;;;5085366;28;19965;-69
2022/11/22 12:04:28;;;;;;;;;;;8.30;99.90;;;;;;5096517;28;19912;-69
2022/11/22 12:07:13;;;;;;;;;;;8.20;99.90;;;;;;5090194;28;19946;-68
2022/11/22 12:09:42;;;;;;;;;;;8.10;99.90;;;;;;5093166;28;19913;-69
2022/11/22 12:12:28;;;;;;;;;;;8.10;99.90;;;;;;5094080;28;19916;-68
2022/11/22 12:15:05;;;;;;;;;;;8.00;99.90;;;;;;5096901;28;20349;-68
2022/11/22 12:17:33;;;;;;;;;;;8.00;99.90;;;;;;5082491;28;20273;-67
2022/11/22 12:20:05;;;;;;;;;;;7.90;99.90;;;;;;5085597;28;19912;-69
2022/11/22 12:22:48;;;;;;;;;;;7.90;99.90;;;;;;5114760;28;20011;-68
2022/11/22 12:25:31;;;;;;;;;;;7.80;99.90;;;;;;5097338;28;20262;-68
2022/11/22 12:27:58;;;;;;;;;;;7.80;99.90;;;;;;5079998;28;19908;-69
2022/11/22 12:30:24;;;;;;;;;;;7.80;99.90;;;;;;5097287;28;19916;-69
2022/11/22 12:33:03;;;;;;;;;;;7.80;99.90;;;;;;5098228;28;20340;-68
2022/11/22 12:35:33;;;;;;;;;;;7.90;99.90;;;;;;5101293;28;19915;-69
2022/11/22 12:38:07;;;;;;;;;;;7.90;99.90;;;;;;5109130;28;19938;-69
2022/11/22 12:40:38;;;;;;;;;;;7.90;99.90;;;;;;5095115;28;20001;-68
2022/11/22 12:43:07;;;;;;;;;;;8.00;99.90;;;;;;5102850;28;20403;-68
2022/11/22 12:45:37;;;;;;;;;;;8.00;99.90;;;;;;5078172;28;19911;-68
2022/11/22 12:48:06;;;;;;;;;;;8.00;99.90;;;;;;5091221;28;19916;-68
2022/11/22 12:50:47;;;;;;;;;;;8.00;99.90;;;;;;5093127;28;19916;-68
2022/11/22 12:53:22;;;;;;;;;;;8.10;99.90;;;;;;5102268;28;19916;-68
2022/11/22 12:56:06;;;;;;;;;;;8.10;99.90;;;;;;5116421;28;19928;-69
2022/11/22 12:58:50;;;;;;;;;;;8.20;99.90;;;;;;5095801;28;19912;-66
2022/11/22 13:01:18;;;;;;;;;;;8.20;99.90;;;;;;5096467;28;20402;-68
2022/11/22 13:03:54;;;;;;;;;;;8.20;99.90;;;;;;5097137;28;20004;-68
2022/11/22 13:06:22;;;;;;;;;;;8.30;99.90;;;;;;5092208;28;19955;-67
2022/11/22 13:09:06;;;;;;;;;;;8.30;99.90;;;;;;5089646;28;19919;-68
2022/11/22 13:11:38;;;;;;;;;;;8.30;99.90;;;;;;5091136;28;20034;-67
2022/11/22 13:14:11;;;;;;;;;;;8.30;99.90;;;;;;5103102;28;20278;-67
2022/11/22 13:16:37;;;;;;;;;;;8.40;99.90;;;;;;5103712;28;20010;-68
2022/11/22 13:19:04;;;;;;;;;;;8.40;99.90;;;;;;5095736;28;19924;-68
2022/11/22 13:21:36;;;;;;;;;;;8.50;99.90;;;;;;5082157;28;19947;-68
2022/11/22 13:24:20;;;;;;;;;;;8.50;99.90;;;;;;5098686;28;20437;-67
2022/11/22 13:27:12;;;;;;;;;;;8.40;99.90;;;;;;5118151;28;19949;-68
2022/11/22 13:29:39;;;;;;;;;;;8.40;99.90;;;;;;5090955;28;19916;-68
2022/11/22 13:32:06;;;;;;;;;;;8.50;99.90;;;;;;5103524;28;19915;-68
2022/11/22 13:34:33;;;;;;;;;;;8.50;99.90;;;;;;5078274;28;19916;-67
2022/11/22 13:37:24;;;;;;;;;;;8.60;99.90;;;;;;5100175;28;20373;-68
2022/11/22 13:39:50;;;;;;;;;;;8.50;99.90;;;;;;5074185;28;19952;-68
2022/11/22 13:42:21;;;;;;;;;;;8.50;99.90;;;;;;5094151;28;19962;-68
2022/11/22 13:45:03;;;;;;;;;;;8.60;99.90;;;;;;5103353;28;19911;-66
2022/11/22 13:47:41;;;;;;;;;;;8.60;99.90;;;;;;5089212;28;20078;-69
2022/11/22 13:50:26;;;;;;;;;;;8.60;99.90;;;;;;5097987;28;19912;-67
2022/11/22 13:52:52;;;;;;;;;;;8.60;99.90;;;;;;5096698;28;19912;-69
2022/11/22 13:55:27;;;;;;;;;;;8.70;99.90;;;;;;5096849;28;19912;-68
2022/11/22 13:57:52;;;;;;;;;;;8.70;99.90;;;;;;5079799;28;20040;-67
2022/11/22 14:00:20;;;;;;;;;;;8.70;99.90;;;;;;5080089;28;19967;-68
2022/11/22 14:02:45;;;;;;;;;;;8.70;99.90;;;;;;5095914;28;19938;-67
2022/11/22 14:05:17;;;;;;;;;;;8.70;99.90;;;;;;5098992;28;20242;-68
2022/11/22 14:07:43;;;;;;;;;;;8.70;99.90;;;;;;5098192;28;19918;-68
2022/11/22 14:10:27;;;;;;;;;;;8.70;99.90;;;;;;5090810;28;19924;-68
2022/11/22 14:13:11;;;;;;;;;;;8.60;99.90;;;;;;5092531;28;20005;-64
2022/11/22 14:15:40;;;;;;;;;;;8.60;99.90;;;;;;5096487;28;19912;-67
2022/11/22 14:18:24;;;;;;;;;;;8.50;99.90;;;;;;5100096;28;20435;-66
2022/11/22 14:21:08;;;;;;;;;;;8.50;99.90;;;;;;5095074;28;20018;-67
2022/11/22 14:23:58;;;;;;;;;;;8.50;99.90;;;;;;5091303;28;19951;-66
2022/11/22 14:26:47;;;;;;;;;;;8.60;99.90;;;;;;5096936;28;19978;-67
2022/11/22 14:29:31;;;;;;;;;;;8.60;99.90;;;;;;5050367;28;19938;-68
2022/11/22 14:32:12;;;;;;;;;;;8.70;99.90;;;;;;5080243;28;19920;-67
2022/11/22 14:34:57;;;;;;;;;;;8.60;99.90;;;;;;5099224;28;19935;-65
2022/11/22 14:37:32;;;;;;;;;;;8.60;99.90;;;;;;5074077;28;19919;-67
2022/11/22 14:40:07;;;;;;;;;;;8.60;99.90;;;;;;5109241;28;19916;-67
2022/11/22 14:42:56;;;;;;;;;;;8.50;99.90;;;;;;5089868;28;19912;-66
2022/11/22 14:45:25;;;;;;;;;;;8.50;99.90;;;;;;5094809;28;19965;-68
2022/11/22 14:47:54;;;;;;;;;;;8.40;99.90;;;;;;5100821;28;19918;-65
2022/11/22 14:50:31;;;;;;;;;;;8.40;99.90;;;;;;5097225;28;19962;-66
2022/11/22 14:52:58;;;;;;;;;;;8.30;99.90;;;;;;5096674;28;19912;-68
2022/11/22 14:55:30;;;;;;;;;;;8.20;99.90;;;;;;5096030;28;20423;-67